Startpagina
METAR-TAF:

METAR-TAF

Vliegvelden :

Bahrein, Bahrein

Internationale luchthaven van Bahrein

breedte: 26-16N, lengte: 050-39E, hoogte: 2 m

Actueel weer

Dit bericht is 15 minuten geleden gemaakt, om 04:00 UTC
Wind 16 kt uit het oostzuidoosten
Temperatuur 21°C
Vochtigheid 83%
Druk 1010 hPa
Zicht 10 km of meer
geen wolken onder 1500 m en geen cumulonimbus

METAR: OBBI 240400Z 12016KT CAVOK 21/18 Q1010 NOSIG

Tijdstip: 07:15 (04:15 UTC)

Verwachting

Dit bericht is 5 uur en het 15 minuten geleden gemaakt, om 23:00 UTC
Verwachting geldig van 24 om 00 UTC tot 25 om 06 UTC
Wind 15 kt uit het oostzuidoosten
Zicht: 7000 m
Tijdelijke
van 24 om 00 UTC tot 25 om 06 UTC
Wind 20 kt uit variabele richting met uitschieters tot 35 kt
Zicht: 2000 m
Verspreide wolken op 4000 ft, Cumulonimbus.
onweer, regen

TAF: OBBI 232300Z 2400/2506 12015KT 7000 NSC TEMPO 2400/2506 VRB20G35KT 2000 TSRA SCT040CB

Waarnemingen en weersverwachtingen van meer dan 4000 vliegvelden (METAR en TAF).

De beschikbare stations zijn de gele en rode punten op de kaart.

Ga met uw muis naar het station om de naam te zien.

Klik dan om waarnemingen en weersverwachtingen te zien.

kaart wijzigen: klik op de groene knoppen met een zwart kruis om in te zoomen, op de groene knop met een streepje om uit te zoomen of op de groene pijlen voor aangrenzende kaarten.


METAR-TAF: